createdAt,value
2022-12-19T00:01:38.648Z,12.50
2022-12-19T00:04:08.040Z,20.37
2022-12-19T00:06:36.487Z,19.83
2022-12-19T00:09:03.717Z,20.00
2022-12-19T00:11:31.104Z,25.13
2022-12-19T00:13:58.673Z,20.17
2022-12-19T00:16:26.554Z,16.90
2022-12-19T00:18:55.844Z,17.37
2022-12-19T00:21:24.287Z,20.70
2022-12-19T00:23:52.114Z,18.90
2022-12-19T00:26:20.252Z,16.17
2022-12-19T00:28:48.854Z,22.77
2022-12-19T00:31:16.606Z,18.37
2022-12-19T00:33:44.028Z,23.27
2022-12-19T00:36:14.978Z,22.47
2022-12-19T00:38:44.230Z,22.30
2022-12-19T00:41:12.194Z,20.47
2022-12-19T00:43:39.763Z,23.40
2022-12-19T00:46:08.048Z,21.10
2022-12-19T00:48:35.269Z,20.90
2022-12-19T00:51:03.305Z,18.67
2022-12-19T00:53:33.955Z,14.87
2022-12-19T00:56:01.900Z,19.03
2022-12-19T00:58:29.021Z,24.27
2022-12-19T01:00:56.238Z,21.73
2022-12-19T01:03:23.341Z,24.67
2022-12-19T01:05:50.926Z,16.97
2022-12-19T01:08:18.054Z,18.43
2022-12-19T01:10:47.599Z,17.10
2022-12-19T01:13:15.033Z,19.00
2022-12-19T01:15:42.273Z,17.37
2022-12-19T01:18:09.367Z,22.60
2022-12-19T01:20:38.518Z,18.70
2022-12-19T01:23:05.647Z,20.40
2022-12-19T01:25:33.451Z,18.40
2022-12-19T01:28:05.483Z,19.87
2022-12-19T01:30:33.248Z,15.27
2022-12-19T01:33:01.471Z,22.33
2022-12-19T01:35:29.185Z,22.53
2022-12-19T01:38:08.598Z,23.10
2022-12-19T01:40:36.460Z,28.23
2022-12-19T01:43:05.377Z,20.17
2022-12-19T01:45:35.011Z,26.47
2022-12-19T01:48:05.219Z,19.50
2022-12-19T01:50:35.209Z,15.17
2022-12-19T01:53:03.544Z,20.60
2022-12-19T01:55:31.101Z,17.93
2022-12-19T01:57:59.880Z,23.53
2022-12-19T02:00:28.308Z,28.10
2022-12-19T02:02:58.320Z,23.80
2022-12-19T02:05:25.543Z,22.50
2022-12-19T02:07:53.678Z,31.10
2022-12-19T02:10:20.953Z,22.03
2022-12-19T02:12:49.222Z,26.07
2022-12-19T02:15:17.476Z,18.40
2022-12-19T02:17:54.029Z,16.63
2022-12-19T02:20:34.998Z,27.40
2022-12-19T02:23:14.123Z,27.17
2022-12-19T02:26:00.151Z,27.33
2022-12-19T02:28:33.052Z,25.90
2022-12-19T02:31:16.629Z,23.50
2022-12-19T02:33:48.391Z,18.37
2022-12-19T02:36:20.129Z,17.77
2022-12-19T02:38:49.473Z,16.50
2022-12-19T02:41:22.753Z,22.17
2022-12-19T02:43:58.932Z,27.13
2022-12-19T02:46:30.143Z,18.07
2022-12-19T02:48:57.505Z,20.97
2022-12-19T02:51:24.600Z,19.67
2022-12-19T02:53:52.083Z,17.50
2022-12-19T02:56:28.230Z,21.43
2022-12-19T02:59:06.409Z,22.00
2022-12-19T03:01:40.830Z,23.17
2022-12-19T03:04:14.391Z,20.80
2022-12-19T03:06:43.492Z,22.97
2022-12-19T03:09:16.240Z,18.93
2022-12-19T03:11:43.461Z,21.53
2022-12-19T03:14:12.325Z,19.00
2022-12-19T03:16:41.770Z,15.87
2022-12-19T03:19:10.146Z,18.03
2022-12-19T03:21:38.372Z,19.57
2022-12-19T03:24:06.003Z,22.27
2022-12-19T03:26:35.771Z,22.10
2022-12-19T03:29:07.244Z,16.30
2022-12-19T03:31:35.413Z,16.40
2022-12-19T03:34:08.475Z,21.07
2022-12-19T03:36:40.883Z,19.70
2022-12-19T03:39:09.782Z,20.37
2022-12-19T03:41:37.193Z,19.60
2022-12-19T03:44:05.846Z,21.83
2022-12-19T03:46:35.068Z,14.90
2022-12-19T03:49:03.524Z,16.00
2022-12-19T03:51:32.366Z,21.03
2022-12-19T03:54:01.183Z,15.80
2022-12-19T03:56:32.466Z,21.50
2022-12-19T03:59:02.141Z,22.40
2022-12-19T04:01:29.991Z,15.80
2022-12-19T04:03:58.170Z,21.00
2022-12-19T04:06:27.571Z,22.00
2022-12-19T04:08:54.704Z,22.10
2022-12-19T04:11:22.112Z,24.23
2022-12-19T04:13:52.213Z,15.30
2022-12-19T04:16:21.398Z,21.43
2022-12-19T04:18:51.827Z,22.03
2022-12-19T04:21:20.569Z,22.57
2022-12-19T04:23:52.058Z,22.97
2022-12-19T04:26:19.782Z,21.60
2022-12-19T04:28:50.038Z,25.73
2022-12-19T04:31:18.375Z,20.67
2022-12-19T04:33:45.514Z,25.63
2022-12-19T04:36:12.677Z,21.40
2022-12-19T04:38:39.846Z,25.63
2022-12-19T04:41:08.379Z,23.30
2022-12-19T04:43:35.459Z,29.30
2022-12-19T04:46:02.653Z,24.70
2022-12-19T04:48:29.921Z,24.67
2022-12-19T04:50:57.187Z,25.10
2022-12-19T04:53:24.275Z,29.47
2022-12-19T04:55:51.387Z,25.40
2022-12-19T04:58:22.014Z,25.30
2022-12-19T05:00:49.318Z,25.30
2022-12-19T05:03:16.474Z,22.73
2022-12-19T05:05:43.652Z,24.30
2022-12-19T05:08:11.348Z,24.43
2022-12-19T05:10:38.697Z,30.63
2022-12-19T05:13:05.801Z,23.10
2022-12-19T05:15:34.269Z,26.63
2022-12-19T05:18:01.346Z,28.33
2022-12-19T05:20:28.459Z,18.73
2022-12-19T05:22:55.555Z,25.40
2022-12-19T05:25:22.670Z,23.83
2022-12-19T05:27:49.773Z,28.17
2022-12-19T05:30:16.902Z,24.90
2022-12-19T05:32:45.316Z,28.37
2022-12-19T05:35:12.433Z,18.60
2022-12-19T05:37:39.575Z,29.20
2022-12-19T05:40:07.370Z,28.63
2022-12-19T05:42:34.469Z,26.90
2022-12-19T05:45:01.565Z,27.97
2022-12-19T05:47:28.659Z,29.53
2022-12-19T05:49:57.274Z,27.90
2022-12-19T05:52:24.415Z,28.83
2022-12-19T05:54:51.780Z,24.00
2022-12-19T05:57:18.877Z,27.23
2022-12-19T05:59:46.008Z,28.20
2022-12-19T06:02:13.201Z,20.73
2022-12-19T06:04:40.397Z,28.00
2022-12-19T06:07:09.437Z,30.53
2022-12-19T06:09:36.524Z,24.73
2022-12-19T06:12:03.650Z,28.17
2022-12-19T06:14:30.739Z,28.50
2022-12-19T06:16:57.839Z,27.00
2022-12-19T06:19:24.925Z,23.63
2022-12-19T06:21:52.367Z,13.97
2022-12-19T06:24:20.833Z,28.43
2022-12-19T06:26:47.949Z,25.67
2022-12-19T06:29:15.064Z,23.93
2022-12-19T06:31:42.227Z,27.63
2022-12-19T06:34:10.043Z,22.30
2022-12-19T06:36:37.535Z,30.60
2022-12-19T06:39:05.114Z,30.33
2022-12-19T06:41:33.572Z,26.30
2022-12-19T06:44:00.984Z,25.30
2022-12-19T06:46:28.304Z,28.53
2022-12-19T06:48:55.576Z,28.57
2022-12-19T06:51:22.967Z,24.10
2022-12-19T06:53:50.057Z,23.97
2022-12-19T06:56:17.525Z,28.40
2022-12-19T06:58:46.133Z,25.40
2022-12-19T07:01:17.428Z,26.63
2022-12-19T07:03:45.785Z,20.70
2022-12-19T07:06:13.034Z,27.83
2022-12-19T07:08:40.142Z,28.20
2022-12-19T07:11:07.304Z,23.37
2022-12-19T07:13:34.462Z,29.40
2022-12-19T07:16:05.007Z,25.73
2022-12-19T07:18:33.100Z,31.10
2022-12-19T07:21:00.353Z,25.67
2022-12-19T07:23:27.438Z,28.70
2022-12-19T07:25:54.555Z,26.23
2022-12-19T07:28:21.763Z,24.30
2022-12-19T07:30:48.860Z,23.30
2022-12-19T07:33:21.430Z,23.17
2022-12-19T07:35:49.176Z,23.87
2022-12-19T07:38:16.357Z,28.03
2022-12-19T07:40:43.446Z,20.33
2022-12-19T07:43:10.559Z,25.37
2022-12-19T07:45:38.034Z,25.43
2022-12-19T07:48:05.989Z,26.63
2022-12-19T07:50:34.816Z,26.20
2022-12-19T07:53:02.135Z,28.87
2022-12-19T07:55:29.347Z,26.30
2022-12-19T07:57:56.465Z,22.83
2022-12-19T08:00:23.736Z,26.77
2022-12-19T08:02:50.977Z,26.70
2022-12-19T08:05:19.076Z,27.37
2022-12-19T08:07:48.664Z,24.90
2022-12-19T08:10:15.752Z,24.30
2022-12-19T08:12:42.907Z,18.77
2022-12-19T08:15:11.300Z,25.30
2022-12-19T08:17:38.625Z,22.50
2022-12-19T08:20:06.547Z,25.80
2022-12-19T08:22:33.647Z,25.30
2022-12-19T08:25:02.116Z,28.63
2022-12-19T08:27:29.248Z,23.77
2022-12-19T08:29:56.391Z,28.20
2022-12-19T08:32:23.499Z,24.13
2022-12-19T08:34:51.004Z,25.93
2022-12-19T08:37:18.327Z,26.20
2022-12-19T08:39:45.465Z,27.10
2022-12-19T08:42:13.901Z,21.00
2022-12-19T08:44:41.013Z,24.40
2022-12-19T08:47:08.111Z,26.80
2022-12-19T08:49:35.248Z,22.60
2022-12-19T08:52:02.968Z,25.10
2022-12-19T08:54:30.088Z,29.33
2022-12-19T08:56:57.181Z,25.47
2022-12-19T08:59:31.147Z,23.73
2022-12-19T09:01:59.455Z,26.43
2022-12-19T09:05:57.963Z,24.53
2022-12-19T09:07:15.586Z,25.07
2022-12-19T09:09:43.190Z,19.93
2022-12-19T09:12:10.320Z,24.77
2022-12-19T09:14:38.796Z,27.20
2022-12-19T09:17:05.913Z,21.10
2022-12-19T09:19:33.203Z,26.03
2022-12-19T09:22:00.357Z,26.20
2022-12-19T09:24:27.619Z,24.30
2022-12-19T09:26:54.735Z,22.70
2022-12-19T09:29:22.416Z,20.90
2022-12-19T09:31:56.173Z,24.50
2022-12-19T09:34:34.849Z,22.80
2022-12-19T09:37:05.599Z,26.10
2022-12-19T09:39:32.694Z,22.23
2022-12-19T09:42:20.907Z,24.70
2022-12-19T09:44:52.937Z,21.70
2022-12-19T09:47:23.545Z,19.60
2022-12-19T09:49:52.386Z,23.90
2022-12-19T09:52:22.139Z,23.30
2022-12-19T09:54:53.253Z,23.30
2022-12-19T09:57:23.714Z,24.47
2022-12-19T09:59:54.243Z,24.93
2022-12-19T10:02:27.790Z,27.07
2022-12-19T10:05:03.755Z,26.00
2022-12-19T10:08:07.132Z,22.90
2022-12-19T10:12:41.313Z,22.43
2022-12-19T10:13:33.305Z,23.13
2022-12-19T10:16:04.427Z,23.90
2022-12-19T10:18:42.375Z,23.63
2022-12-19T10:21:12.455Z,20.70
2022-12-19T10:23:48.383Z,22.47
2022-12-19T10:26:18.309Z,22.00
2022-12-19T10:28:52.988Z,22.63
2022-12-19T10:31:23.114Z,21.93
2022-12-19T10:33:56.527Z,21.43
2022-12-19T10:36:42.060Z,21.43
2022-12-19T10:39:15.159Z,22.50
2022-12-19T10:41:44.302Z,20.47
2022-12-19T10:44:12.117Z,20.50
2022-12-19T10:46:40.225Z,20.07
2022-12-19T10:49:12.808Z,21.80
2022-12-19T10:51:40.288Z,20.87
2022-12-19T10:54:07.377Z,21.03
2022-12-19T10:56:37.827Z,17.70
2022-12-19T10:59:15.695Z,20.17
2022-12-19T11:01:42.897Z,19.43
2022-12-19T11:04:24.906Z,21.10
2022-12-19T11:06:52.952Z,20.30
2022-12-19T11:09:21.845Z,20.03
2022-12-19T11:12:53.916Z,19.03
2022-12-19T11:17:36.200Z,19.77
2022-12-19T11:23:00.319Z,19.80
2022-12-19T11:29:36.945Z,18.93
2022-12-19T11:29:43.274Z,17.27
2022-12-19T11:30:36.759Z,19.20
2022-12-19T11:30:48.384Z,17.80
2022-12-19T11:34:25.300Z,18.23
2022-12-19T11:36:56.368Z,17.90
2022-12-19T11:39:26.254Z,16.90
2022-12-19T11:41:58.062Z,16.30
2022-12-19T11:44:28.617Z,18.50
2022-12-19T11:46:59.489Z,19.80
2022-12-19T11:49:29.362Z,17.97
2022-12-19T11:52:01.508Z,21.00
2022-12-19T11:54:31.112Z,20.17
2022-12-19T11:56:58.355Z,15.97
2022-12-19T11:59:28.080Z,19.70
2022-12-19T12:02:01.255Z,22.80
2022-12-19T12:04:46.162Z,20.30
2022-12-19T12:07:43.175Z,19.97
2022-12-19T12:14:47.058Z,18.97
2022-12-19T12:20:28.633Z,16.00
2022-12-19T12:31:01.791Z,15.63
2022-12-19T12:31:20.141Z,19.50
2022-12-19T12:31:40.918Z,16.80
2022-12-19T12:31:41.564Z,15.10
2022-12-19T12:31:57.250Z,16.43
2022-12-19T12:31:58.819Z,14.73
2022-12-19T12:35:34.422Z,17.07
2022-12-19T12:41:27.316Z,14.13
2022-12-19T12:44:02.393Z,14.53
2022-12-19T12:46:33.611Z,16.90
2022-12-19T12:49:03.206Z,15.40
2022-12-19T12:51:30.794Z,16.03
2022-12-19T12:54:00.624Z,12.07
2022-12-19T12:56:29.457Z,13.97
2022-12-19T12:59:07.890Z,14.87
2022-12-19T13:01:36.684Z,14.50
2022-12-19T13:04:06.159Z,14.77
2022-12-19T13:06:33.998Z,13.07
2022-12-19T13:09:03.558Z,16.00
2022-12-19T13:11:39.403Z,14.00
2022-12-19T13:14:07.205Z,13.83
2022-12-19T13:16:50.337Z,15.23
2022-12-19T13:19:24.136Z,15.17
2022-12-19T13:22:15.223Z,14.33
2022-12-19T13:24:43.225Z,14.93
2022-12-19T13:27:31.885Z,14.50
2022-12-19T13:30:03.375Z,13.77
2022-12-19T13:32:33.322Z,13.63
2022-12-19T13:36:03.792Z,14.47
2022-12-19T13:39:59.030Z,13.40
2022-12-19T13:40:52.448Z,12.23
2022-12-19T13:43:24.234Z,13.37
2022-12-19T13:45:52.671Z,11.10
2022-12-19T13:48:25.265Z,12.80
2022-12-19T13:50:52.804Z,14.10
2022-12-19T13:53:22.519Z,12.50
2022-12-19T13:55:49.770Z,14.40
2022-12-19T13:58:28.979Z,12.10
2022-12-19T14:00:58.113Z,12.53
2022-12-19T14:03:32.379Z,12.03
2022-12-19T14:06:17.898Z,11.40
2022-12-19T14:08:47.459Z,11.53
2022-12-19T14:11:42.874Z,12.97
2022-12-19T14:14:10.279Z,11.67
2022-12-19T14:16:44.649Z,12.43
2022-12-19T14:19:22.237Z,10.70
2022-12-19T14:22:11.847Z,13.10
2022-12-19T14:24:36.505Z,11.77
2022-12-19T14:28:24.036Z,13.00
2022-12-19T14:30:28.447Z,13.83
2022-12-19T14:33:47.101Z,12.50
2022-12-19T14:36:09.761Z,14.37
2022-12-19T14:39:23.114Z,14.07
2022-12-19T14:41:17.500Z,14.80
2022-12-19T14:43:58.918Z,13.43
2022-12-19T14:54:03.376Z,13.93
2022-12-19T14:54:21.437Z,14.30
2022-12-19T14:54:28.278Z,14.70
2022-12-19T14:56:08.826Z,13.53
2022-12-19T14:58:54.153Z,13.07
2022-12-19T15:01:11.263Z,11.40
2022-12-19T15:04:33.809Z,13.17
2022-12-19T15:07:08.449Z,12.30
2022-12-19T15:11:06.714Z,14.83
2022-12-19T15:13:13.140Z,13.50
2022-12-19T15:15:03.559Z,10.93
2022-12-19T15:17:30.820Z,13.90
2022-12-19T15:19:59.241Z,8.37
2022-12-19T15:22:26.348Z,12.67
2022-12-19T15:24:53.543Z,10.73
2022-12-19T15:27:21.367Z,13.13
2022-12-19T15:29:48.528Z,11.17
2022-12-19T15:32:15.889Z,12.90
2022-12-19T15:34:50.688Z,12.60
2022-12-19T15:37:20.034Z,11.67
2022-12-19T15:39:47.466Z,13.00
2022-12-19T15:42:17.891Z,10.80
2022-12-19T15:44:46.384Z,11.60
2022-12-19T15:47:17.639Z,11.20
2022-12-19T15:49:44.791Z,11.67
2022-12-19T15:52:15.821Z,10.67
2022-12-19T15:54:49.173Z,9.67
2022-12-19T15:57:20.195Z,10.63
2022-12-19T15:59:47.520Z,10.67
2022-12-19T16:02:19.467Z,11.37
2022-12-19T16:04:47.094Z,11.20
2022-12-19T16:07:15.785Z,10.77
2022-12-19T16:09:42.909Z,10.23
2022-12-19T16:12:13.253Z,10.90
2022-12-19T16:14:40.367Z,10.57
2022-12-19T16:17:12.363Z,10.13
2022-12-19T16:19:39.468Z,9.57
2022-12-19T16:22:15.535Z,9.93
2022-12-19T16:24:42.625Z,10.07
2022-12-19T16:27:11.106Z,10.10
2022-12-19T16:29:41.804Z,10.57
2022-12-19T16:32:09.549Z,10.30
2022-12-19T16:34:36.699Z,9.77
2022-12-19T16:37:03.835Z,9.33
2022-12-19T16:39:30.963Z,10.07
2022-12-19T16:41:58.138Z,11.17
2022-12-19T16:44:25.302Z,9.73
2022-12-19T16:46:53.842Z,10.00
2022-12-19T16:49:21.934Z,10.47
2022-12-19T16:51:49.236Z,9.97
2022-12-19T16:54:16.990Z,9.00
2022-12-19T16:56:45.126Z,9.40
2022-12-19T16:59:14.709Z,9.57
2022-12-19T17:01:42.339Z,9.73
2022-12-19T17:04:12.999Z,10.87
2022-12-19T17:06:40.099Z,11.50
2022-12-19T17:09:07.320Z,9.60
2022-12-19T17:11:34.502Z,11.00
2022-12-19T17:14:03.144Z,11.63
2022-12-19T17:16:30.876Z,10.60
2022-12-19T17:18:58.387Z,10.60
2022-12-19T17:21:26.833Z,10.10
2022-12-19T17:23:54.068Z,9.80
2022-12-19T17:26:21.187Z,10.07
2022-12-19T17:28:48.534Z,9.07
2022-12-19T17:31:19.865Z,9.30
2022-12-19T17:33:47.111Z,9.53
2022-12-19T17:36:18.462Z,9.10
2022-12-19T17:38:51.666Z,8.97
2022-12-19T17:41:18.796Z,7.80
2022-12-19T17:43:45.906Z,10.23
2022-12-19T17:46:16.996Z,8.53
2022-12-19T17:48:44.419Z,9.40
2022-12-19T17:51:11.951Z,8.00
2022-12-19T17:53:39.092Z,9.27
2022-12-19T17:56:09.178Z,9.60
2022-12-19T17:58:36.312Z,8.73
2022-12-19T18:01:03.445Z,8.70
2022-12-19T18:03:30.676Z,9.30
2022-12-19T18:05:58.767Z,7.10
2022-12-19T18:08:27.290Z,10.00
2022-12-19T18:10:54.832Z,9.47
2022-12-19T18:13:23.269Z,8.90
2022-12-19T18:15:50.737Z,8.80
2022-12-19T18:18:20.821Z,8.80
2022-12-19T18:20:47.957Z,9.33
2022-12-19T18:23:16.683Z,9.00
2022-12-19T18:25:44.263Z,8.70
2022-12-19T18:28:11.502Z,9.00
2022-12-19T18:30:40.445Z,9.10
2022-12-19T18:33:07.914Z,9.53
2022-12-19T18:35:36.377Z,8.63
2022-12-19T18:38:05.716Z,9.10
2022-12-19T18:40:32.943Z,8.77
2022-12-19T18:43:00.272Z,9.07
2022-12-19T18:45:31.125Z,9.27
2022-12-19T18:48:00.663Z,8.03
2022-12-19T18:50:29.136Z,8.20
2022-12-19T18:52:56.555Z,8.73
2022-12-19T18:55:24.402Z,7.93
2022-12-19T18:57:51.571Z,9.40
2022-12-19T19:00:19.668Z,7.43
2022-12-19T19:02:48.828Z,8.87
2022-12-19T19:05:19.699Z,9.30
2022-12-19T19:07:47.179Z,9.50
2022-12-19T19:10:18.578Z,11.50
2022-12-19T19:12:52.431Z,10.37
2022-12-19T19:15:20.049Z,9.23
2022-12-19T19:17:53.225Z,9.23
2022-12-19T19:20:21.809Z,9.07
2022-12-19T19:22:49.343Z,9.03
2022-12-19T19:25:16.530Z,8.20
2022-12-19T19:27:43.706Z,7.87
2022-12-19T19:30:11.545Z,8.13
2022-12-19T19:32:40.024Z,8.50
2022-12-19T19:35:08.919Z,8.67
2022-12-19T19:37:37.496Z,7.73
2022-12-19T19:40:05.049Z,7.07
2022-12-19T19:42:32.179Z,7.10
2022-12-19T19:44:59.287Z,8.10
2022-12-19T19:47:26.442Z,8.50
2022-12-19T19:49:53.532Z,8.13
2022-12-19T19:52:20.621Z,8.20
2022-12-19T19:54:49.074Z,8.13
2022-12-19T19:57:16.192Z,8.27
2022-12-19T19:59:43.416Z,7.80
2022-12-19T20:02:10.772Z,7.47
2022-12-19T20:04:38.228Z,8.33
2022-12-19T20:07:05.871Z,7.50
2022-12-19T20:09:33.053Z,7.23
2022-12-19T20:12:01.507Z,7.37
2022-12-19T20:14:28.644Z,7.80
2022-12-19T20:16:55.760Z,7.90
2022-12-19T20:19:22.910Z,7.57
2022-12-19T20:21:50.026Z,6.77
2022-12-19T20:24:17.117Z,8.73
2022-12-19T20:26:44.219Z,7.40
2022-12-19T20:29:12.664Z,7.13
2022-12-19T20:31:39.987Z,7.23
2022-12-19T20:34:07.199Z,6.90
2022-12-19T20:36:34.335Z,6.47
2022-12-19T20:39:01.469Z,6.83
2022-12-19T20:41:28.884Z,7.60
2022-12-19T20:43:55.989Z,6.80
2022-12-19T20:46:24.653Z,6.63
2022-12-19T20:48:52.209Z,7.00
2022-12-19T20:51:20.444Z,6.80
2022-12-19T20:53:48.255Z,6.60
2022-12-19T20:56:16.237Z,7.13
2022-12-19T20:58:43.561Z,7.20
2022-12-19T21:01:12.112Z,6.63
2022-12-19T21:03:41.077Z,7.20
2022-12-19T21:06:09.050Z,7.00
2022-12-19T21:08:36.522Z,9.30
2022-12-19T21:11:04.277Z,7.67
2022-12-19T21:13:31.389Z,6.03
2022-12-19T21:15:59.746Z,6.60
2022-12-19T21:18:27.175Z,6.40
2022-12-19T21:20:55.968Z,6.30
2022-12-19T21:23:23.601Z,7.10
2022-12-19T21:25:50.668Z,6.20
2022-12-19T21:28:17.785Z,6.87
2022-12-19T21:30:44.945Z,5.87
2022-12-19T21:33:12.078Z,6.00
2022-12-19T21:35:39.161Z,6.40
2022-12-19T21:38:07.702Z,5.67
2022-12-19T21:40:36.174Z,5.57
2022-12-19T21:43:11.195Z,5.03
2022-12-19T21:45:39.320Z,6.20
2022-12-19T21:48:06.649Z,6.70
2022-12-19T21:50:33.772Z,4.80
2022-12-19T21:53:00.861Z,6.40
2022-12-19T21:55:29.313Z,5.00
2022-12-19T21:57:56.422Z,6.87
2022-12-19T22:00:23.760Z,5.47
2022-12-19T22:03:12.733Z,5.37
2022-12-19T22:05:38.012Z,4.60
2022-12-19T22:08:05.315Z,4.97
2022-12-19T22:10:33.764Z,4.60
2022-12-19T22:13:00.910Z,5.70
2022-12-19T22:15:28.023Z,5.00
2022-12-19T22:17:55.097Z,4.70
2022-12-19T22:20:22.197Z,4.50
2022-12-19T22:22:49.265Z,4.60
2022-12-19T22:25:16.397Z,4.20
2022-12-19T22:27:44.863Z,3.83
2022-12-19T22:30:12.190Z,4.10
2022-12-19T22:32:39.300Z,4.17
2022-12-19T22:35:06.992Z,3.80
2022-12-19T22:37:34.184Z,3.90
2022-12-19T22:40:01.354Z,3.30
2022-12-19T22:42:28.488Z,3.70
2022-12-19T22:44:57.004Z,3.20
2022-12-19T22:47:24.100Z,2.53
2022-12-19T22:49:51.236Z,3.37
2022-12-19T22:52:18.356Z,3.00
2022-12-19T22:54:45.472Z,2.93
2022-12-19T22:57:12.574Z,3.60
2022-12-19T22:59:39.664Z,2.77
2022-12-19T23:02:08.265Z,3.57
2022-12-19T23:04:35.715Z,2.50
2022-12-19T23:07:02.999Z,2.77
2022-12-19T23:09:30.104Z,2.30
2022-12-19T23:11:57.224Z,2.70
2022-12-19T23:14:24.330Z,2.70
2022-12-19T23:16:51.597Z,2.30
2022-12-19T23:19:20.117Z,2.80
2022-12-19T23:21:47.332Z,2.20
2022-12-19T23:24:14.536Z,2.27
2022-12-19T23:26:41.846Z,2.50
2022-12-19T23:29:10.321Z,2.47
2022-12-19T23:31:39.208Z,2.30
2022-12-19T23:34:06.345Z,2.30
2022-12-19T23:39:21.930Z,2.23
2022-12-19T23:41:49.086Z,2.90
2022-12-19T23:44:16.407Z,2.70
2022-12-19T23:46:43.568Z,2.40
2022-12-19T23:49:10.721Z,2.47
2022-12-19T23:51:39.185Z,2.83
2022-12-19T23:54:06.299Z,2.60
2022-12-19T23:56:33.615Z,3.07
2022-12-19T23:59:01.145Z,2.80
